Nearby METAR Reports

 

LFSI - St. Dizier/Robin, France
Distance from station: SO 26km
Mise à jour: 06/06/2020 01:00
Pluie, couvert
Pluie, couvert
 Wind from SO
Vent: SO 13 km/h
Température: 12°C
Point de rosée: 11°C
Humidité: 94%
Baromètre: 1002 hPa
Résumé: Pluie
Clouds: couvert
Visibility: 10 km
Cloud details: Few Clouds 305 m
couvert 1646 m
2020/06/05 23:00 LFSI 052300Z AUTO 23007KT 200V260 9999 RA FEW010 OVC054 12/11 Q1002
LFSO - Nancy/Ochey (faf, France
Distance from station: ESE 62km
Mise à jour: 06/06/2020 01:00
pluie légère, Thunderstorm
pluie légère, Thunderstorm
 Wind from SO
Vent: SO 19 km/h
Température: 10°C
Wind Chill: 7°C
Point de rosée: 10°C
Humidité: 100%
Baromètre: 1002 hPa
Résumé: pluie légère
Clouds: Thunderstorm
Visibility: 10 km
Cloud details: Few Clouds 1189 m
nuageux 1402 m
couvert 1707 m
2020/06/05 23:00 LFSO 052300Z AUTO 22010KT 9999 -RA FEW039/// BKN046/// OVC056/// ///TCU 10/10 Q1002
LFOK - Chalons/Vatry Fa, France
Distance from station: O 73km
Mise à jour: 06/06/2020 01:00
pluie légère, couvert
pluie légère, couvert
 Wind from OSO
Vent: OSO 20 km/h
Température: 11°C
Point de rosée: 11°C
Humidité: 100%
Baromètre: 1002 hPa
Résumé: pluie légère
Clouds: couvert
Visibility: 10 km
Cloud details: Few Clouds 914 m
nuageux 1951 m
couvert 2256 m
2020/06/05 23:00 LFOK 052300Z AUTO 24011KT 9999 -RA FEW030 BKN064 OVC074 11/11 Q1002 TEMPO 2000 RA BKN007 BKN020TCU
 
LFSN - Nancy/Essey, France
Distance from station: E 77km
Mise à jour: 06/06/2020 01:00
clair
clair
 Wind from SO
Vent: SO 13 km/h
Température: 12°C
Point de rosée: 9°C
Humidité: 82%
Baromètre: 1002 hPa
Résumé: clair
Visibility: greater than 10 km
2020/06/05 23:00 LFSN 052300Z AUTO 22007KT 170V250 CAVOK 12/09 Q1002
LFSG - Epinal/Mirecourt, France
Distance from station: SE 81km
Mise à jour: 06/06/2020 01:00
pluie légère, Thunderstorm
pluie légère, Thunderstorm
 Wind from OSO
Vent: OSO 15 km/h
Température: 11°C
Point de rosée: 9°C
Humidité: 88%
Baromètre: 1002 hPa
Résumé: pluie légère
Clouds: Thunderstorm
Visibility: 8 km
Cloud details: Few Clouds 823 m
nuageux 1158 m
nuageux 1433 m
2020/06/05 23:00 LFSG 052300Z AUTO 25008KT 8000 -RA FEW027/// BKN038/// BKN047/// ///TCU 11/09 Q1002
LFJL - Metz-Nancy-Lorra, France
Distance from station: ENE 82km
Mise à jour: 06/06/2020 01:00
pluie légère, partiellement nuageux
pluie légère, partiellement nuageux
 Wind from SO
Vent: SO 19 km/h
Température: 11°C
Point de rosée: 10°C
Humidité: 94%
Baromètre: 1001 hPa
Résumé: pluie légère
Clouds: partiellement nuageux
Visibility: 10 km
2020/06/05 23:00 LFJL 052300Z AUTO 22010KT 9999 -RA NSC 11/10 Q1001 TEMPO 4000 -RA FEW025TCU
 
LFQA - Reims/Prunay, France
Distance from station: ONO 89km
Mise à jour: 06/06/2020 01:00
pluie légère, partiellement nuageux
pluie légère, partiellement nuageux
 Wind from OSO
Vent: OSO 9 km/h
Température: 12°C
Point de rosée: 10°C
Humidité: 88%
Baromètre: 1001 hPa
Résumé: pluie légère
Clouds: partiellement nuageux
Visibility: 10 km
2020/06/05 23:00 LFQA 052300Z AUTO 25005KT 9999 -RA NSC 12/10 Q1001
LFQB - Troyes/Barberey, France
Distance from station: OSO 99km
Mise à jour: 06/06/2020 01:00
pluie légère, Mist, couvert
pluie légère, Mist, couvert
 Wind from OSO
Vent: OSO 13 km/h
Température: 12°C
Point de rosée: 11°C
Humidité: 94%
Baromètre: 1003 hPa
Résumé: pluie légère, Mist
Clouds: couvert
Visibility: 4 km
Cloud details: nuageux 457 m
nuageux 1097 m
couvert 1372 m
2020/06/05 23:00 LFQB 052300Z AUTO 24007KT 3900 -RA BR BKN015 BKN036 OVC045 12/11 Q1003